sensor_id;sensor_type;location;lat;lon;timestamp;temperature;humidity
15879;DHT22;61999;51.514;14.614;2022-12-10T00:01:47;-1.20;61.10
15879;DHT22;61999;51.514;14.614;2022-12-10T00:04:16;-1.10;61.10
15879;DHT22;61999;51.514;14.614;2022-12-10T00:06:46;-1.10;61.00
15879;DHT22;61999;51.514;14.614;2022-12-10T00:09:17;-1.10;61.80
15879;DHT22;61999;51.514;14.614;2022-12-10T00:11:47;-1.10;61.10
15879;DHT22;61999;51.514;14.614;2022-12-10T00:14:16;-1.10;61.00
15879;DHT22;61999;51.514;14.614;2022-12-10T00:16:45;-1.10;61.10
15879;DHT22;61999;51.514;14.614;2022-12-10T00:19:13;-1.10;61.00
15879;DHT22;61999;51.514;14.614;2022-12-10T00:21:42;-1.20;61.10
15879;DHT22;61999;51.514;14.614;2022-12-10T00:24:12;-1.10;61.20
15879;DHT22;61999;51.514;14.614;2022-12-10T00:26:40;-1.10;61.20
15879;DHT22;61999;51.514;14.614;2022-12-10T00:29:11;-1.20;61.10
15879;DHT22;61999;51.514;14.614;2022-12-10T00:31:40;-1.20;61.20
15879;DHT22;61999;51.514;14.614;2022-12-10T00:34:10;-1.10;61.30
15879;DHT22;61999;51.514;14.614;2022-12-10T00:36:41;-1.10;61.20
15879;DHT22;61999;51.514;14.614;2022-12-10T00:39:13;-1.10;61.20
15879;DHT22;61999;51.514;14.614;2022-12-10T00:41:42;-1.10;61.20
15879;DHT22;61999;51.514;14.614;2022-12-10T00:44:11;-1.10;61.00
15879;DHT22;61999;51.514;14.614;2022-12-10T00:46:40;-1.10;61.00
15879;DHT22;61999;51.514;14.614;2022-12-10T00:49:08;-1.10;61.00
15879;DHT22;61999;51.514;14.614;2022-12-10T00:51:37;-1.10;61.00
15879;DHT22;61999;51.514;14.614;2022-12-10T00:54:05;-1.10;61.00
15879;DHT22;61999;51.514;14.614;2022-12-10T00:56:35;-1.10;62.00
15879;DHT22;61999;51.514;14.614;2022-12-10T00:59:03;-1.10;61.00
15879;DHT22;61999;51.514;14.614;2022-12-10T01:01:33;-1.10;60.90
15879;DHT22;61999;51.514;14.614;2022-12-10T01:04:04;-1.10;60.90
15879;DHT22;61999;51.514;14.614;2022-12-10T01:06:35;-1.10;60.90
15879;DHT22;61999;51.514;14.614;2022-12-10T01:09:10;-1.10;60.90
15879;DHT22;61999;51.514;14.614;2022-12-10T01:11:42;-1.10;60.90
15879;DHT22;61999;51.514;14.614;2022-12-10T01:14:14;-1.10;61.00
15879;DHT22;61999;51.514;14.614;2022-12-10T01:16:44;-1.20;60.90
15879;DHT22;61999;51.514;14.614;2022-12-10T01:19:13;-1.20;60.90
15879;DHT22;61999;51.514;14.614;2022-12-10T01:21:41;-1.20;61.00
15879;DHT22;61999;51.514;14.614;2022-12-10T01:24:09;-1.10;61.00
15879;DHT22;61999;51.514;14.614;2022-12-10T01:26:37;-1.20;61.00
15879;DHT22;61999;51.514;14.614;2022-12-10T01:29:06;-1.20;61.10
15879;DHT22;61999;51.514;14.614;2022-12-10T01:31:36;-1.20;61.00
15879;DHT22;61999;51.514;14.614;2022-12-10T01:34:06;-1.20;61.10
15879;DHT22;61999;51.514;14.614;2022-12-10T01:36:39;-1.10;61.10
15879;DHT22;61999;51.514;14.614;2022-12-10T01:39:15;-1.10;60.80
15879;DHT22;61999;51.514;14.614;2022-12-10T01:41:47;-1.10;60.80
15879;DHT22;61999;51.514;14.614;2022-12-10T01:45:02;-1.10;60.80
15879;DHT22;61999;51.514;14.614;2022-12-10T01:47:36;-1.10;60.70
15879;DHT22;61999;51.514;14.614;2022-12-10T01:50:06;-1.10;60.60
15879;DHT22;61999;51.514;14.614;2022-12-10T01:52:37;-1.10;60.60
15879;DHT22;61999;51.514;14.614;2022-12-10T01:55:34;-1.10;60.40
15879;DHT22;61999;51.514;14.614;2022-12-10T01:58:08;-1.10;60.50
15879;DHT22;61999;51.514;14.614;2022-12-10T02:00:43;-1.10;60.40
15879;DHT22;61999;51.514;14.614;2022-12-10T02:03:21;-1.20;60.40
15879;DHT22;61999;51.514;14.614;2022-12-10T02:06:01;-1.20;60.50
15879;DHT22;61999;51.514;14.614;2022-12-10T02:08:39;-1.20;60.50
15879;DHT22;61999;51.514;14.614;2022-12-10T02:11:17;-1.20;60.50
15879;DHT22;61999;51.514;14.614;2022-12-10T02:13:56;-1.20;60.50
15879;DHT22;61999;51.514;14.614;2022-12-10T02:16:32;-1.30;60.70
15879;DHT22;61999;51.514;14.614;2022-12-10T02:19:12;-1.20;60.80
15879;DHT22;61999;51.514;14.614;2022-12-10T02:21:47;-1.30;60.70
15879;DHT22;61999;51.514;14.614;2022-12-10T02:24:28;-1.30;60.70
15879;DHT22;61999;51.514;14.614;2022-12-10T02:27:03;-1.20;60.60
15879;DHT22;61999;51.514;14.614;2022-12-10T02:29:36;-1.20;60.60
15879;DHT22;61999;51.514;14.614;2022-12-10T02:32:09;-1.30;60.70
15879;DHT22;61999;51.514;14.614;2022-12-10T02:34:48;-1.30;60.70
15879;DHT22;61999;51.514;14.614;2022-12-10T02:37:22;-1.30;60.80
15879;DHT22;61999;51.514;14.614;2022-12-10T02:39:56;-1.40;60.90
15879;DHT22;61999;51.514;14.614;2022-12-10T02:42:28;-1.30;61.00
15879;DHT22;61999;51.514;14.614;2022-12-10T02:45:00;-1.40;60.90
15879;DHT22;61999;51.514;14.614;2022-12-10T02:51:35;-1.40;61.00
15879;DHT22;61999;51.514;14.614;2022-12-10T02:54:05;-1.30;61.10
15879;DHT22;61999;51.514;14.614;2022-12-10T02:56:57;-1.40;61.00
15879;DHT22;61999;51.514;14.614;2022-12-10T02:59:32;-1.30;61.10
15879;DHT22;61999;51.514;14.614;2022-12-10T03:02:12;-1.30;61.00
15879;DHT22;61999;51.514;14.614;2022-12-10T03:04:50;-1.30;61.10
15879;DHT22;61999;51.514;14.614;2022-12-10T03:07:29;-1.40;61.00
15879;DHT22;61999;51.514;14.614;2022-12-10T03:10:03;-1.40;61.00
15879;DHT22;61999;51.514;14.614;2022-12-10T03:12:39;-1.40;61.10
15879;DHT22;61999;51.514;14.614;2022-12-10T03:15:14;-1.30;61.20
15879;DHT22;61999;51.514;14.614;2022-12-10T03:17:48;-1.30;61.90
15879;DHT22;61999;51.514;14.614;2022-12-10T03:20:18;-1.30;61.20
15879;DHT22;61999;51.514;14.614;2022-12-10T03:22:47;-1.30;61.90
15879;DHT22;61999;51.514;14.614;2022-12-10T03:25:19;-1.40;61.00
15879;DHT22;61999;51.514;14.614;2022-12-10T03:27:54;-1.30;61.20
15879;DHT22;61999;51.514;14.614;2022-12-10T03:30:23;-1.30;61.20
15879;DHT22;61999;51.514;14.614;2022-12-10T03:32:53;-1.30;61.20
15879;DHT22;61999;51.514;14.614;2022-12-10T03:35:23;-1.30;61.10
15879;DHT22;61999;51.514;14.614;2022-12-10T03:37:52;-1.30;61.10
15879;DHT22;61999;51.514;14.614;2022-12-10T03:40:23;-1.30;61.10
15879;DHT22;61999;51.514;14.614;2022-12-10T03:42:52;-1.30;61.90
15879;DHT22;61999;51.514;14.614;2022-12-10T03:45:20;-1.30;61.10
15879;DHT22;61999;51.514;14.614;2022-12-10T03:47:48;-1.30;61.10
15879;DHT22;61999;51.514;14.614;2022-12-10T03:50:18;-1.30;61.10
15879;DHT22;61999;51.514;14.614;2022-12-10T03:52:46;-1.30;61.20
15879;DHT22;61999;51.514;14.614;2022-12-10T03:55:14;-1.40;61.10
15879;DHT22;61999;51.514;14.614;2022-12-10T03:57:42;-1.30;61.20
15879;DHT22;61999;51.514;14.614;2022-12-10T04:00:11;-1.30;61.20
15879;DHT22;61999;51.514;14.614;2022-12-10T04:02:40;-1.30;61.20
15879;DHT22;61999;51.514;14.614;2022-12-10T04:05:08;-1.30;61.20
15879;DHT22;61999;51.514;14.614;2022-12-10T04:07:38;-1.30;61.20
15879;DHT22;61999;51.514;14.614;2022-12-10T04:10:06;-1.30;61.10
15879;DHT22;61999;51.514;14.614;2022-12-10T04:12:35;-1.40;61.00
15879;DHT22;61999;51.514;14.614;2022-12-10T04:15:04;-1.30;61.20
15879;DHT22;61999;51.514;14.614;2022-12-10T04:17:50;-1.30;61.20
15879;DHT22;61999;51.514;14.614;2022-12-10T04:20:19;-1.40;61.10
15879;DHT22;61999;51.514;14.614;2022-12-10T04:23:07;-1.40;61.20
15879;DHT22;61999;51.514;14.614;2022-12-10T04:25:53;-1.40;61.10
15879;DHT22;61999;51.514;14.614;2022-12-10T04:28:39;-1.30;61.10
15879;DHT22;61999;51.514;14.614;2022-12-10T04:31:07;-1.40;60.80
15879;DHT22;61999;51.514;14.614;2022-12-10T04:33:35;-1.40;60.90
15879;DHT22;61999;51.514;14.614;2022-12-10T04:36:03;-1.40;60.80
15879;DHT22;61999;51.514;14.614;2022-12-10T04:38:33;-1.40;61.00
15879;DHT22;61999;51.514;14.614;2022-12-10T04:41:01;-1.40;61.00
15879;DHT22;61999;51.514;14.614;2022-12-10T04:43:29;-1.40;61.10
15879;DHT22;61999;51.514;14.614;2022-12-10T04:45:57;-1.40;61.10
15879;DHT22;61999;51.514;14.614;2022-12-10T04:48:25;-1.40;61.00
15879;DHT22;61999;51.514;14.614;2022-12-10T04:50:52;-1.50;61.00
15879;DHT22;61999;51.514;14.614;2022-12-10T04:53:20;-1.50;61.00
15879;DHT22;61999;51.514;14.614;2022-12-10T04:55:51;-1.50;61.10
15879;DHT22;61999;51.514;14.614;2022-12-10T04:58:19;-1.50;61.10
15879;DHT22;61999;51.514;14.614;2022-12-10T05:00:47;-1.50;61.10
15879;DHT22;61999;51.514;14.614;2022-12-10T05:03:15;-1.40;61.20
15879;DHT22;61999;51.514;14.614;2022-12-10T05:05:43;-1.40;61.20
15879;DHT22;61999;51.514;14.614;2022-12-10T05:08:11;-1.50;61.00
15879;DHT22;61999;51.514;14.614;2022-12-10T05:10:39;-1.50;61.10
15879;DHT22;61999;51.514;14.614;2022-12-10T05:13:08;-1.40;61.20
15879;DHT22;61999;51.514;14.614;2022-12-10T05:15:38;-1.40;61.20
15879;DHT22;61999;51.514;14.614;2022-12-10T05:18:06;-1.50;61.10
15879;DHT22;61999;51.514;14.614;2022-12-10T05:20:34;-1.40;61.20
15879;DHT22;61999;51.514;14.614;2022-12-10T05:23:02;-1.50;61.00
15879;DHT22;61999;51.514;14.614;2022-12-10T05:25:47;-1.50;61.10
15879;DHT22;61999;51.514;14.614;2022-12-10T05:28:21;-1.50;61.10
15879;DHT22;61999;51.514;14.614;2022-12-10T05:30:50;-1.40;61.20
15879;DHT22;61999;51.514;14.614;2022-12-10T05:33:18;-1.50;61.10
15879;DHT22;61999;51.514;14.614;2022-12-10T05:35:52;-1.40;61.20
15879;DHT22;61999;51.514;14.614;2022-12-10T05:38:21;-1.50;61.10
15879;DHT22;61999;51.514;14.614;2022-12-10T05:40:50;-1.50;61.10
15879;DHT22;61999;51.514;14.614;2022-12-10T05:43:23;-1.50;61.10
15879;DHT22;61999;51.514;14.614;2022-12-10T05:45:51;-1.50;61.00
15879;DHT22;61999;51.514;14.614;2022-12-10T05:48:19;-1.50;61.00
15879;DHT22;61999;51.514;14.614;2022-12-10T05:50:47;-1.50;61.10
15879;DHT22;61999;51.514;14.614;2022-12-10T05:53:15;-1.50;61.20
15879;DHT22;61999;51.514;14.614;2022-12-10T05:55:44;-1.50;61.10
15879;DHT22;61999;51.514;14.614;2022-12-10T05:58:13;-1.50;61.10
15879;DHT22;61999;51.514;14.614;2022-12-10T06:00:42;-1.40;61.20
15879;DHT22;61999;51.514;14.614;2022-12-10T06:03:10;-1.50;61.10
15879;DHT22;61999;51.514;14.614;2022-12-10T06:05:39;-1.50;61.10
15879;DHT22;61999;51.514;14.614;2022-12-10T06:08:08;-1.50;61.10
15879;DHT22;61999;51.514;14.614;2022-12-10T06:10:36;-1.50;61.10
15879;DHT22;61999;51.514;14.614;2022-12-10T06:13:04;-1.50;61.00
15879;DHT22;61999;51.514;14.614;2022-12-10T06:15:32;-1.50;61.10
15879;DHT22;61999;51.514;14.614;2022-12-10T06:18:02;-1.50;61.00
15879;DHT22;61999;51.514;14.614;2022-12-10T06:20:30;-1.50;61.00
15879;DHT22;61999;51.514;14.614;2022-12-10T06:22:58;-1.50;61.00
15879;DHT22;61999;51.514;14.614;2022-12-10T06:25:26;-1.50;61.00
15879;DHT22;61999;51.514;14.614;2022-12-10T06:27:54;-1.50;61.00
15879;DHT22;61999;51.514;14.614;2022-12-10T06:30:22;-1.50;61.10
15879;DHT22;61999;51.514;14.614;2022-12-10T06:32:50;-1.50;61.00
15879;DHT22;61999;51.514;14.614;2022-12-10T06:35:19;-1.50;61.00
15879;DHT22;61999;51.514;14.614;2022-12-10T06:37:48;-1.50;61.00
15879;DHT22;61999;51.514;14.614;2022-12-10T06:40:17;-1.50;61.00
15879;DHT22;61999;51.514;14.614;2022-12-10T06:42:45;-1.50;61.10
15879;DHT22;61999;51.514;14.614;2022-12-10T06:45:13;-1.50;61.10
15879;DHT22;61999;51.514;14.614;2022-12-10T06:47:41;-1.50;61.90
15879;DHT22;61999;51.514;14.614;2022-12-10T06:50:09;-1.60;61.10
15879;DHT22;61999;51.514;14.614;2022-12-10T06:52:38;-1.50;61.20
15879;DHT22;61999;51.514;14.614;2022-12-10T06:55:07;-1.50;61.20
15879;DHT22;61999;51.514;14.614;2022-12-10T06:57:35;-1.50;61.20
15879;DHT22;61999;51.514;14.614;2022-12-10T07:00:04;-1.50;61.30
15879;DHT22;61999;51.514;14.614;2022-12-10T07:02:33;-1.50;61.40
15879;DHT22;61999;51.514;14.614;2022-12-10T07:05:01;-1.50;61.30
15879;DHT22;61999;51.514;14.614;2022-12-10T07:07:30;-1.50;61.40
15879;DHT22;61999;51.514;14.614;2022-12-10T07:09:59;-1.50;61.30
15879;DHT22;61999;51.514;14.614;2022-12-10T07:12:27;-1.50;61.40
15879;DHT22;61999;51.514;14.614;2022-12-10T07:14:55;-1.50;61.50
15879;DHT22;61999;51.514;14.614;2022-12-10T07:17:23;-1.50;61.40
15879;DHT22;61999;51.514;14.614;2022-12-10T07:19:51;-1.50;61.30
15879;DHT22;61999;51.514;14.614;2022-12-10T07:22:19;-1.40;61.30
15879;DHT22;61999;51.514;14.614;2022-12-10T07:24:48;-1.50;61.20
15879;DHT22;61999;51.514;14.614;2022-12-10T07:27:18;-1.50;61.10
15879;DHT22;61999;51.514;14.614;2022-12-10T07:29:46;-1.50;61.20
15879;DHT22;61999;51.514;14.614;2022-12-10T07:32:14;-1.50;61.30
15879;DHT22;61999;51.514;14.614;2022-12-10T07:34:42;-1.50;61.40
15879;DHT22;61999;51.514;14.614;2022-12-10T07:37:09;-1.50;61.50
15879;DHT22;61999;51.514;14.614;2022-12-10T07:39:37;-1.50;61.60
15879;DHT22;61999;51.514;14.614;2022-12-10T07:42:05;-1.50;61.60
15879;DHT22;61999;51.514;14.614;2022-12-10T07:44:35;-1.50;61.50
15879;DHT22;61999;51.514;14.614;2022-12-10T07:47:03;-1.50;61.60
15879;DHT22;61999;51.514;14.614;2022-12-10T07:49:31;-1.50;61.70
15879;DHT22;61999;51.514;14.614;2022-12-10T07:51:59;-1.50;61.60
15879;DHT22;61999;51.514;14.614;2022-12-10T07:54:27;-1.40;61.60
15879;DHT22;61999;51.514;14.614;2022-12-10T07:56:55;-1.40;61.60
15879;DHT22;61999;51.514;14.614;2022-12-10T07:59:23;-1.40;61.60
15879;DHT22;61999;51.514;14.614;2022-12-10T08:01:52;-1.40;61.60
15879;DHT22;61999;51.514;14.614;2022-12-10T08:04:20;-1.40;61.70
15879;DHT22;61999;51.514;14.614;2022-12-10T08:06:48;-1.40;61.60
15879;DHT22;61999;51.514;14.614;2022-12-10T08:09:16;-1.40;61.60
15879;DHT22;61999;51.514;14.614;2022-12-10T08:11:44;-1.40;61.60
15879;DHT22;61999;51.514;14.614;2022-12-10T08:14:12;-1.30;61.60
15879;DHT22;61999;51.514;14.614;2022-12-10T08:16:52;-1.30;61.50
15879;DHT22;61999;51.514;14.614;2022-12-10T08:19:21;-1.30;61.50
15879;DHT22;61999;51.514;14.614;2022-12-10T08:21:52;-1.40;61.50
15879;DHT22;61999;51.514;14.614;2022-12-10T08:24:20;-1.40;61.50
15879;DHT22;61999;51.514;14.614;2022-12-10T08:26:48;-1.40;61.60
15879;DHT22;61999;51.514;14.614;2022-12-10T08:29:16;-1.40;61.70
15879;DHT22;61999;51.514;14.614;2022-12-10T08:31:44;-1.40;61.80
15879;DHT22;61999;51.514;14.614;2022-12-10T08:34:16;-1.30;61.90
15879;DHT22;61999;51.514;14.614;2022-12-10T08:36:45;-1.40;61.90
15879;DHT22;61999;51.514;14.614;2022-12-10T08:39:14;-1.30;62.10
15879;DHT22;61999;51.514;14.614;2022-12-10T08:41:43;-1.30;62.10
15879;DHT22;61999;51.514;14.614;2022-12-10T08:44:13;-1.30;62.10
15879;DHT22;61999;51.514;14.614;2022-12-10T08:46:41;-1.30;62.00
15879;DHT22;61999;51.514;14.614;2022-12-10T08:49:09;-1.30;62.00
15879;DHT22;61999;51.514;14.614;2022-12-10T08:51:39;-1.30;62.20
15879;DHT22;61999;51.514;14.614;2022-12-10T08:54:07;-1.30;62.20
15879;DHT22;61999;51.514;14.614;2022-12-10T08:56:35;-1.30;62.40
15879;DHT22;61999;51.514;14.614;2022-12-10T08:59:05;-1.20;62.50
15879;DHT22;61999;51.514;14.614;2022-12-10T09:01:34;-1.20;62.50
15879;DHT22;61999;51.514;14.614;2022-12-10T09:04:02;-1.20;63.00
15879;DHT22;61999;51.514;14.614;2022-12-10T09:06:30;-1.20;62.10
15879;DHT22;61999;51.514;14.614;2022-12-10T09:09:00;-1.20;62.10
15879;DHT22;61999;51.514;14.614;2022-12-10T09:11:30;-1.20;62.10
15879;DHT22;61999;51.514;14.614;2022-12-10T09:13:59;-1.30;62.00
15879;DHT22;61999;51.514;14.614;2022-12-10T09:16:29;-1.30;62.10
15879;DHT22;61999;51.514;14.614;2022-12-10T09:18:58;-1.30;62.10
15879;DHT22;61999;51.514;14.614;2022-12-10T09:21:27;-1.30;62.10
15879;DHT22;61999;51.514;14.614;2022-12-10T09:23:57;-1.30;62.30
15879;DHT22;61999;51.514;14.614;2022-12-10T09:26:27;-1.40;62.30
15879;DHT22;61999;51.514;14.614;2022-12-10T09:28:55;-1.30;62.60
15879;DHT22;61999;51.514;14.614;2022-12-10T09:31:24;-1.30;62.60
15879;DHT22;61999;51.514;14.614;2022-12-10T09:33:53;-1.30;62.70
15879;DHT22;61999;51.514;14.614;2022-12-10T09:36:22;-1.30;62.70
15879;DHT22;61999;51.514;14.614;2022-12-10T09:38:51;-1.40;62.60
15879;DHT22;61999;51.514;14.614;2022-12-10T09:41:50;-1.30;62.90
15879;DHT22;61999;51.514;14.614;2022-12-10T09:44:32;-1.40;62.70
15879;DHT22;61999;51.514;14.614;2022-12-10T09:47:12;-1.30;62.70
15879;DHT22;61999;51.514;14.614;2022-12-10T09:49:56;-1.30;62.70
15879;DHT22;61999;51.514;14.614;2022-12-10T09:52:33;-1.30;62.70
15879;DHT22;61999;51.514;14.614;2022-12-10T09:55:11;-1.30;62.70
15879;DHT22;61999;51.514;14.614;2022-12-10T09:57:45;-1.30;62.90
15879;DHT22;61999;51.514;14.614;2022-12-10T10:00:19;-1.30;62.90
15879;DHT22;61999;51.514;14.614;2022-12-10T10:02:50;-1.30;63.00
15879;DHT22;61999;51.514;14.614;2022-12-10T10:05:22;-1.30;63.00
15879;DHT22;61999;51.514;14.614;2022-12-10T10:07:54;-1.30;63.00
15879;DHT22;61999;51.514;14.614;2022-12-10T10:10:27;-1.30;63.00
15879;DHT22;61999;51.514;14.614;2022-12-10T10:13:01;-1.30;63.00
15879;DHT22;61999;51.514;14.614;2022-12-10T10:15:41;-1.30;63.00
15879;DHT22;61999;51.514;14.614;2022-12-10T10:18:14;-1.30;62.80
15879;DHT22;61999;51.514;14.614;2022-12-10T10:20:49;-1.30;62.80
15879;DHT22;61999;51.514;14.614;2022-12-10T10:23:18;-1.20;62.70
15879;DHT22;61999;51.514;14.614;2022-12-10T10:25:46;-1.20;62.70
15879;DHT22;61999;51.514;14.614;2022-12-10T10:28:19;-1.30;62.60
15879;DHT22;61999;51.514;14.614;2022-12-10T10:30:50;-1.30;62.70
15879;DHT22;61999;51.514;14.614;2022-12-10T10:33:20;-1.30;62.80
15879;DHT22;61999;51.514;14.614;2022-12-10T10:35:52;-1.20;62.90
15879;DHT22;61999;51.514;14.614;2022-12-10T10:38:26;-1.20;62.80
15879;DHT22;61999;51.514;14.614;2022-12-10T10:40:57;-1.20;62.70
15879;DHT22;61999;51.514;14.614;2022-12-10T10:43:32;-1.30;62.60
15879;DHT22;61999;51.514;14.614;2022-12-10T10:46:03;-1.20;62.80
15879;DHT22;61999;51.514;14.614;2022-12-10T10:48:34;-1.20;62.60
15879;DHT22;61999;51.514;14.614;2022-12-10T10:51:07;-1.20;62.40
15879;DHT22;61999;51.514;14.614;2022-12-10T10:53:43;-1.20;62.50
15879;DHT22;61999;51.514;14.614;2022-12-10T10:56:15;-1.20;62.50
15879;DHT22;61999;51.514;14.614;2022-12-10T10:58:54;-1.20;62.40
15879;DHT22;61999;51.514;14.614;2022-12-10T11:01:27;-1.20;62.40
15879;DHT22;61999;51.514;14.614;2022-12-10T11:04:13;-1.20;62.40
15879;DHT22;61999;51.514;14.614;2022-12-10T11:06:43;-1.20;62.50
15879;DHT22;61999;51.514;14.614;2022-12-10T11:09:20;-1.20;62.50
15879;DHT22;61999;51.514;14.614;2022-12-10T11:11:51;-1.20;62.50
15879;DHT22;61999;51.514;14.614;2022-12-10T11:14:29;-1.20;62.50
15879;DHT22;61999;51.514;14.614;2022-12-10T11:17:17;-1.20;62.60
15879;DHT22;61999;51.514;14.614;2022-12-10T11:19:54;-1.20;62.70
15879;DHT22;61999;51.514;14.614;2022-12-10T11:22:27;-1.20;62.40
15879;DHT22;61999;51.514;14.614;2022-12-10T11:24:58;-1.10;62.50
15879;DHT22;61999;51.514;14.614;2022-12-10T11:27:43;-1.10;62.50
15879;DHT22;61999;51.514;14.614;2022-12-10T11:30:21;-1.10;62.50
15879;DHT22;61999;51.514;14.614;2022-12-10T11:33:15;-1.10;62.60
15879;DHT22;61999;51.514;14.614;2022-12-10T11:35:57;-1.10;62.70
15879;DHT22;61999;51.514;14.614;2022-12-10T11:38:41;-1.10;62.60
15879;DHT22;61999;51.514;14.614;2022-12-10T11:41:21;-1.10;62.70
15879;DHT22;61999;51.514;14.614;2022-12-10T11:44:13;-1.00;62.80
15879;DHT22;61999;51.514;14.614;2022-12-10T11:47:17;-1.00;62.80
15879;DHT22;61999;51.514;14.614;2022-12-10T11:50:01;-1.00;62.70
15879;DHT22;61999;51.514;14.614;2022-12-10T11:52:56;-1.00;62.60
15879;DHT22;61999;51.514;14.614;2022-12-10T11:55:42;-1.00;62.50
15879;DHT22;61999;51.514;14.614;2022-12-10T11:58:32;-0.90;62.60
15879;DHT22;61999;51.514;14.614;2022-12-10T12:01:15;-0.90;62.40
15879;DHT22;61999;51.514;14.614;2022-12-10T12:04:23;-0.90;62.30
15879;DHT22;61999;51.514;14.614;2022-12-10T12:07:23;-0.80;62.20
15879;DHT22;61999;51.514;14.614;2022-12-10T12:10:34;-0.80;62.10
15879;DHT22;61999;51.514;14.614;2022-12-10T12:13:23;-0.90;62.00
15879;DHT22;61999;51.514;14.614;2022-12-10T12:15:58;-0.80;62.00
15879;DHT22;61999;51.514;14.614;2022-12-10T12:18:36;-0.80;62.10
15879;DHT22;61999;51.514;14.614;2022-12-10T12:21:14;-0.80;62.80
15879;DHT22;61999;51.514;14.614;2022-12-10T12:23:48;-0.80;62.00
15879;DHT22;61999;51.514;14.614;2022-12-10T12:26:27;-0.80;62.00
15879;DHT22;61999;51.514;14.614;2022-12-10T12:29:05;-0.80;62.00
15879;DHT22;61999;51.514;14.614;2022-12-10T12:31:43;-0.70;61.60
15879;DHT22;61999;51.514;14.614;2022-12-10T12:34:20;-0.70;61.60
15879;DHT22;61999;51.514;14.614;2022-12-10T12:36:53;-0.80;61.60
15879;DHT22;61999;51.514;14.614;2022-12-10T12:39:27;-0.80;61.60
15879;DHT22;61999;51.514;14.614;2022-12-10T12:42:17;-0.80;61.70
15879;DHT22;61999;51.514;14.614;2022-12-10T12:44:59;-0.80;61.80
15879;DHT22;61999;51.514;14.614;2022-12-10T12:47:38;-0.80;61.90
15879;DHT22;61999;51.514;14.614;2022-12-10T12:50:25;-0.80;61.90
15879;DHT22;61999;51.514;14.614;2022-12-10T12:53:00;-0.80;61.70
15879;DHT22;61999;51.514;14.614;2022-12-10T12:55:33;-0.80;61.50
15879;DHT22;61999;51.514;14.614;2022-12-10T12:58:15;-0.80;61.90
15879;DHT22;61999;51.514;14.614;2022-12-10T13:00:55;-0.80;61.00
15879;DHT22;61999;51.514;14.614;2022-12-10T13:03:33;-0.80;60.90
15879;DHT22;61999;51.514;14.614;2022-12-10T13:06:16;-0.80;60.80
15879;DHT22;61999;51.514;14.614;2022-12-10T13:08:53;-0.90;60.80
15879;DHT22;61999;51.514;14.614;2022-12-10T13:11:34;-0.90;60.80
15879;DHT22;61999;51.514;14.614;2022-12-10T13:17:24;-1.00;60.90
15879;DHT22;61999;51.514;14.614;2022-12-10T13:20:29;-1.00;60.90
15879;DHT22;61999;51.514;14.614;2022-12-10T13:23:49;-1.00;61.10
15879;DHT22;61999;51.514;14.614;2022-12-10T13:26:24;-1.00;61.10
15879;DHT22;61999;51.514;14.614;2022-12-10T13:28:54;-1.00;60.90
15879;DHT22;61999;51.514;14.614;2022-12-10T13:31:34;-1.00;60.80
15879;DHT22;61999;51.514;14.614;2022-12-10T13:34:19;-1.10;60.80
15879;DHT22;61999;51.514;14.614;2022-12-10T13:37:18;-1.10;61.00
15879;DHT22;61999;51.514;14.614;2022-12-10T13:40:13;-1.20;61.10
15879;DHT22;61999;51.514;14.614;2022-12-10T13:42:57;-1.20;61.20
15879;DHT22;61999;51.514;14.614;2022-12-10T13:45:44;-1.10;61.20
15879;DHT22;61999;51.514;14.614;2022-12-10T13:48:31;-1.10;61.20
15879;DHT22;61999;51.514;14.614;2022-12-10T13:51:14;-1.10;61.10
15879;DHT22;61999;51.514;14.614;2022-12-10T13:54:01;-1.10;61.00
15879;DHT22;61999;51.514;14.614;2022-12-10T13:56:49;-1.20;61.00
15879;DHT22;61999;51.514;14.614;2022-12-10T13:59:32;-1.20;61.00
15879;DHT22;61999;51.514;14.614;2022-12-10T14:02:33;-1.20;60.80
15879;DHT22;61999;51.514;14.614;2022-12-10T14:05:37;-1.20;61.60
15879;DHT22;61999;51.514;14.614;2022-12-10T14:08:17;-1.20;60.80
15879;DHT22;61999;51.514;14.614;2022-12-10T14:10:50;-1.30;60.80
15879;DHT22;61999;51.514;14.614;2022-12-10T14:13:22;-1.30;60.90
15879;DHT22;61999;51.514;14.614;2022-12-10T14:15:56;-1.30;61.10
15879;DHT22;61999;51.514;14.614;2022-12-10T14:18:29;-1.30;61.20
15879;DHT22;61999;51.514;14.614;2022-12-10T14:20:57;-1.40;61.20
15879;DHT22;61999;51.514;14.614;2022-12-10T14:23:34;-1.40;61.30
15879;DHT22;61999;51.514;14.614;2022-12-10T14:26:11;-1.40;61.40
15879;DHT22;61999;51.514;14.614;2022-12-10T14:28:44;-1.40;61.50
15879;DHT22;61999;51.514;14.614;2022-12-10T14:31:17;-1.40;61.50
15879;DHT22;61999;51.514;14.614;2022-12-10T14:33:49;-1.40;61.40
15879;DHT22;61999;51.514;14.614;2022-12-10T14:36:24;-1.40;61.40
15879;DHT22;61999;51.514;14.614;2022-12-10T14:38:55;-1.40;61.60
15879;DHT22;61999;51.514;14.614;2022-12-10T14:41:24;-1.40;61.50
15879;DHT22;61999;51.514;14.614;2022-12-10T14:44:02;-1.40;61.30
15879;DHT22;61999;51.514;14.614;2022-12-10T14:46:32;-1.40;61.30
15879;DHT22;61999;51.514;14.614;2022-12-10T14:49:00;-1.40;61.30
15879;DHT22;61999;51.514;14.614;2022-12-10T14:51:32;-1.40;61.10
15879;DHT22;61999;51.514;14.614;2022-12-10T14:54:01;-1.40;61.20
15879;DHT22;61999;51.514;14.614;2022-12-10T14:56:33;-1.50;61.30
15879;DHT22;61999;51.514;14.614;2022-12-10T14:59:12;-1.50;61.40
15879;DHT22;61999;51.514;14.614;2022-12-10T15:01:47;-1.50;61.50
15879;DHT22;61999;51.514;14.614;2022-12-10T15:04:23;-1.50;61.60
15879;DHT22;61999;51.514;14.614;2022-12-10T15:06:56;-1.50;61.60
15879;DHT22;61999;51.514;14.614;2022-12-10T15:09:26;-1.50;61.70
15879;DHT22;61999;51.514;14.614;2022-12-10T15:11:56;-1.50;61.60
15879;DHT22;61999;51.514;14.614;2022-12-10T15:14:28;-1.50;61.60
15879;DHT22;61999;51.514;14.614;2022-12-10T15:16:57;-1.50;61.60
15879;DHT22;61999;51.514;14.614;2022-12-10T15:19:32;-1.60;61.50
15879;DHT22;61999;51.514;14.614;2022-12-10T15:22:18;-1.60;61.50
15879;DHT22;61999;51.514;14.614;2022-12-10T15:24:48;-1.60;61.50
15879;DHT22;61999;51.514;14.614;2022-12-10T15:27:18;-1.60;61.70
15879;DHT22;61999;51.514;14.614;2022-12-10T15:29:49;-1.60;61.60
15879;DHT22;61999;51.514;14.614;2022-12-10T15:32:21;-1.60;61.60
15879;DHT22;61999;51.514;14.614;2022-12-10T15:34:55;-1.60;61.40
15879;DHT22;61999;51.514;14.614;2022-12-10T15:37:27;-1.60;61.40
15879;DHT22;61999;51.514;14.614;2022-12-10T15:40:04;-1.60;61.50
15879;DHT22;61999;51.514;14.614;2022-12-10T15:42:40;-1.60;61.30
15879;DHT22;61999;51.514;14.614;2022-12-10T15:45:19;-1.60;61.20
15879;DHT22;61999;51.514;14.614;2022-12-10T15:47:49;-1.60;61.20
15879;DHT22;61999;51.514;14.614;2022-12-10T15:50:18;-1.70;61.20
15879;DHT22;61999;51.514;14.614;2022-12-10T15:52:46;-1.70;61.30
15879;DHT22;61999;51.514;14.614;2022-12-10T15:55:18;-1.70;61.30
15879;DHT22;61999;51.514;14.614;2022-12-10T15:58:07;-1.60;61.50
15879;DHT22;61999;51.514;14.614;2022-12-10T16:01:23;-1.60;61.50
15879;DHT22;61999;51.514;14.614;2022-12-10T16:03:51;-1.70;61.20